ADDS METAR Data INFO
IDs: Format: Raw Decoded Include TAF

Data at: 2040 UTC 20 Jul 2018

KCRX 202035Z AUTO 17009KT 10SM 33/25 A2987 RMK AO2
KCRX 202015Z AUTO 17007G13KT 10SM 33/25 A2988 RMK AO2
KCRX 201955Z AUTO 16007KT 140V200 8SM 33/25 A2988 RMK AO2
KCRX 201935Z AUTO 16008G14KT 9SM 33/25 A2988 RMK AO2
KCRX 201915Z AUTO 17008KT 10SM 33/25 A2988 RMK AO2
KCRX 201855Z AUTO 19006G11KT 10SM 32/25 A2989 RMK AO2
KCRX 201835Z AUTO VRB05KT 9SM 32/26 A2990 RMK AO2
KCRX 201815Z AUTO VRB06KT 10SM 31/25 A2991 RMK AO2
KCRX 201755Z AUTO 22005KT 10SM 31/25 A2993 RMK AO2
KCRX 201735Z AUTO 22006KT 9SM 31/25 A2994 RMK AO2
KCRX 201715Z AUTO 26003KT 10SM 31/25 A2995 RMK AO2
KCRX 201655Z AUTO 17006G11KT 10SM 30/24 A2994 RMK AO2
KCRX 201635Z AUTO 17006KT 10SM 31/25 A2994 RMK AO2
KCRX 201615Z AUTO 18007KT 10SM 30/25 A2995 RMK AO2
KCRX 201555Z AUTO 22006KT 10SM 30/24 A2995 RMK AO2
KCRX 201535Z AUTO VRB04KT 10SM 29/24 A2995 RMK AO2
KCRX 201515Z AUTO 14006KT 10SM 29/24 A2994 RMK AO2
KCRX 201455Z AUTO 16008KT 10SM 29/24 A2994 RMK AO2
KCRX 201435Z AUTO 19006KT 10SM 28/24 A2995 RMK AO2
KCRX 201415Z AUTO 16006KT 10SM 28/24 A2995 RMK AO2
KCRX 201355Z AUTO 15005KT 10SM 28/24 A2995 RMK AO2
KCRX 201335Z AUTO 15007KT 10SM 27/24 A2995 RMK AO2
KCRX 201315Z AUTO 16006KT 10SM 26/24 A2995 RMK AO2
KCRX 201255Z AUTO 15007KT 10SM 26/24 A2994 RMK AO2
KCRX 201235Z AUTO 16004KT 10SM 25/24 A2995 RMK AO2
KCRX 201215Z AUTO 16007KT 10SM 25/24 A2994 RMK AO2
KCRX 201155Z AUTO 16006KT 10SM 25/24 A2993 RMK AO2
KCRX 201135Z AUTO 15004KT 10SM 25/24 A2993 RMK AO2
KCRX 201115Z AUTO 15005KT 10SM 24/23 A2992 RMK AO2
KCRX 201055Z AUTO 00000KT 10SM 24/23 A2992 RMK AO2
KCRX 201035Z AUTO 15004KT 10SM 24/23 A2991 RMK AO2
KCRX 201015Z AUTO 16004KT 10SM 24/23 A2991 RMK AO2
KCRX 200955Z AUTO 15003KT 10SM 24/23 A2991 RMK AO2
KCRX 200935Z AUTO 00000KT 10SM 24/23 A2991 RMK AO2
KCRX 200915Z AUTO 00000KT 10SM 24/23 A2990 RMK AO2
KCRX 200855Z AUTO 00000KT 10SM 24/23 A2990 RMK AO2
KCRX 200835Z AUTO 00000KT 10SM 24/23 A2990 RMK AO2
KCRX 200815Z AUTO 00000KT 10SM 25/23 A2989 RMK AO2
KCRX 200755Z AUTO 14004KT 10SM 25/23 A2988 RMK AO2
KCRX 200735Z AUTO 00000KT 10SM 25/23 A2988 RMK AO2
KCRX 200715Z AUTO 18004KT 10SM 25/23 A2988 RMK AO2
KCRX 200655Z AUTO 19004KT 10SM 26/23 A2989 RMK AO2
KCRX 200635Z AUTO 17005KT 10SM 26/23 A2989 RMK AO2
KCRX 200615Z AUTO 16005KT 10SM 25/23 A2990 RMK AO2
KCRX 200555Z AUTO 00000KT 10SM 25/23 A2992 RMK AO2
KCRX 200535Z AUTO 00000KT 10SM 25/24 A2992 RMK AO2
KCRX 200515Z AUTO 11005KT 10SM 25/24 A2991 RMK AO2
KCRX 200455Z AUTO 00000KT 10SM 26/24 A2992 RMK AO2 LTG DSNT SW
KCRX 200435Z AUTO 00000KT 10SM 26/23 A2992 RMK AO2 LTG DSNT SW
KCRX 200415Z AUTO 00000KT 10SM 26/23 A2993 RMK AO2
KCRX 200355Z AUTO 26004KT 10SM 26/23 A2993 RMK AO2
KCRX 200335Z AUTO 00000KT 10SM 27/23 A2993 RMK AO2
KCRX 200315Z AUTO 21004KT 10SM VCTS 27/23 A2991 RMK AO2 LTG DSNT SW
KCRX 200255Z AUTO 13005KT 10SM 27/24 A2991 RMK AO2 LTG DSNT SW
KCRX 200235Z AUTO 18004KT 10SM VCTS 27/24 A2994 RMK AO2 LTG DSNT SW-NW
KCRX 200215Z AUTO 14004KT 10SM 27/25 A2991 RMK AO2 LTG DSNT SW AND W
KCRX 200155Z AUTO 00000KT 10SM VCTS 27/24 A2991 RMK AO2 LTG DSNT SW AND W
KCRX 200135Z AUTO 17004KT 10SM 28/24 A2990 RMK AO2 LTG DSNT W
KCRX 200115Z AUTO 00000KT 10SM 27/24 A2989 RMK AO2 LTG DSNT N AND W
KCRX 200055Z AUTO 15003KT 10SM 28/25 A2988 RMK AO2 LTG DSNT W
KCRX 200035Z AUTO 12004KT 10SM 29/24 A2988 RMK AO2
KCRX 200015Z AUTO 15006KT 10SM 30/24 A2986 RMK AO2 LTG DSNT N AND W
KCRX 192355Z AUTO 15005KT 10SM 30/24 A2987 RMK AO2
KCRX 192335Z AUTO 17004KT 10SM 30/23 A2987 RMK AO2
KCRX 192315Z AUTO VRB03KT 10SM 31/23 A2987 RMK AO2
KCRX 192255Z AUTO 17005KT 10SM 31/23 A2987 RMK AO2
KCRX 192235Z AUTO 17005KT 10SM 32/23 A2988 RMK AO2
KCRX 192215Z AUTO 15006KT 10SM 32/23 A2987 RMK AO2
KCRX 192155Z AUTO 00000KT 10SM 32/23 A2988 RMK AO2
KCRX 192135Z AUTO 00000KT 10SM 32/23 A2988 RMK AO2
KCRX 192115Z AUTO VRB03KT 10SM 32/23 A2989 RMK AO2
KCRX 192055Z AUTO 00000KT 10SM 32/23 A2989 RMK AO2
KCRX 192035Z AUTO 20005KT 10SM 32/23 A2990 RMK AO2
KCRX 192015Z AUTO 00000KT 10SM 31/23 A2991 RMK AO2
KCRX 191955Z AUTO 19007KT 10SM 32/23 A2991 RMK AO2
KCRX 191935Z AUTO VRB05G11KT 10SM 32/23 A2992 RMK AO2
KCRX 191915Z AUTO VRB04KT 10SM 31/23 A2992 RMK AO2
KCRX 191855Z AUTO 12006KT 10SM 31/24 A2993 RMK AO2
KCRX 191835Z AUTO VRB05KT 10SM 31/24 A2993 RMK AO2
KCRX 191815Z AUTO 17007KT 10SM 30/24 A2994 RMK AO2
KCRX 191755Z AUTO 18006KT 10SM 30/23 A2994 RMK AO2
KCRX 191735Z AUTO 13006KT 10SM 30/23 A2995 RMK AO2
KCRX 191715Z AUTO VRB04KT 10SM 29/23 A2995 RMK AO2
KCRX 191655Z AUTO 18006KT 10SM 30/23 A2995 RMK AO2
KCRX 191635Z AUTO 16007G15KT 10SM 29/23 A2995 RMK AO2
KCRX 191615Z AUTO 14010G17KT 10SM 29/23 A2995 RMK AO2
KCRX 191555Z AUTO 12010KT 10SM 29/24 A2995 RMK AO2
KCRX 191535Z AUTO VRB05KT 10SM 29/24 A2996 RMK AO2
KCRX 191515Z AUTO 15004KT 10SM 28/23 A2996 RMK AO2
KCRX 191455Z AUTO 15006KT 10SM 27/23 A2996 RMK AO2
KCRX 191435Z AUTO 13005KT 10SM 26/23 A2996 RMK AO2 LTG DSNT SE AND S
KCRX 191415Z AUTO 13003KT 10SM 25/23 A2997 RMK AO2
KCRX 191355Z AUTO 12005KT 10SM 25/22 A2997 RMK AO2 LTG DSNT SE AND S
KCRX 191335Z AUTO 14005KT 10SM 24/22 A2997 RMK AO2 LTG DSNT SE AND S
KCRX 191315Z AUTO 15004KT 10SM 24/22 A2996 RMK AO2 LTG DSNT SE AND S
KCRX 191255Z AUTO 16004KT 10SM 24/22 A2996 RMK AO2 LTG DSNT SE AND S
KCRX 191235Z AUTO 00000KT 10SM 24/22 A2995 RMK AO2 LTG DSNT SE AND S
KCRX 191215Z AUTO 00000KT 10SM 23/22 A2995 RMK AO2 LTG DSNT SE AND S
KCRX 191155Z AUTO 00000KT 10SM 23/22 A2995 RMK AO2 LTG DSNT S
KCRX 191135Z AUTO 00000KT 10SM 23/22 A2994 RMK AO2 LTG DSNT SE AND S
KCRX 191115Z AUTO 12004KT 10SM VCTS 23/21 A2995 RMK AO2 LTG DSNT S
KCRX 191055Z AUTO 09007KT 10SM 22/21 A2995 RMK AO2 P0001
KCRX 191035Z AUTO 09004KT 10SM 22/21 A2996 RMK AO2 LTG DSNT E
KCRX 191015Z AUTO 00000KT 10SM 22/21 A2995 RMK AO2
KCRX 190955Z AUTO 10006KT 5SM -RA 22/21 A2995 RMK AO2 P0031
KCRX 190935Z AUTO 02004KT 4SM RA 22/21 A2995 RMK AO2 LTG DSNT NE-S
KCRX 190915Z AUTO 33009KT 2 1/2SM VCTS RA 24/22 A2995 RMK AO2 LTG DSNT NE AND S
KCRX 190855Z AUTO 30013KT 6SM -DZ 24/22 A2993 RMK AO2 P0002